Grafton, Wisconsin
Current Conditions -  °F | °C
As of 11:35 PM on Wednesday 26 Nov 2014 (Local Time) from KETB Reporting Station
Broken Clouds Broken Clouds  
Wind Chill: 13°   Ceiling: 6000
Heat Index: 19°   Visibility: 7mi
Dew Point: 16°   Wind: 5mph
Humidity: 86%   Direction: 280°W
Pressure: 30.19"   Gusts: NA
Location:  43.32°N, 87.94°W
Report Text: KETB 270535Z AUTO 28004KT 7SM SCT046 BKN060 BKN070 M07/M09 A3019 RMK AO2
Loading
Personal Weather Stations






























Interactive Weather Map New forecast layout! Learn more

10-Day Weather Forecast

Advertisements
Track Severe Weather on mobile